sensor_id;sensor_type;location;lat;lon;timestamp;temperature;humidity
67131;HTU21D;54051;53.464;49.532;2023-08-17T00:00:14;21.57;80.77
67131;HTU21D;54051;53.464;49.532;2023-08-17T00:02:41;21.52;81.21
67131;HTU21D;54051;53.464;49.532;2023-08-17T00:05:07;21.45;81.22
67131;HTU21D;54051;53.464;49.532;2023-08-17T00:07:33;21.38;81.46
67131;HTU21D;54051;53.464;49.532;2023-08-17T00:09:59;21.38;81.42
67131;HTU21D;54051;53.464;49.532;2023-08-17T00:12:25;21.35;81.83
67131;HTU21D;54051;53.464;49.532;2023-08-17T00:14:51;21.32;81.32
67131;HTU21D;54051;53.464;49.532;2023-08-17T00:17:17;21.23;81.02
67131;HTU21D;54051;53.464;49.532;2023-08-17T00:19:43;21.15;81.84
67131;HTU21D;54051;53.464;49.532;2023-08-17T00:22:09;21.13;82.07
67131;HTU21D;54051;53.464;49.532;2023-08-17T00:24:34;21.15;82.02
67131;HTU21D;54051;53.464;49.532;2023-08-17T00:27:00;21.13;82.16
67131;HTU21D;54051;53.464;49.532;2023-08-17T00:29:26;21.04;81.86
67131;HTU21D;54051;53.464;49.532;2023-08-17T00:31:52;20.99;81.35
67131;HTU21D;54051;53.464;49.532;2023-08-17T00:34:18;20.92;81.72
67131;HTU21D;54051;53.464;49.532;2023-08-17T00:36:44;20.86;82.42
67131;HTU21D;54051;53.464;49.532;2023-08-17T00:39:10;20.72;82.62
67131;HTU21D;54051;53.464;49.532;2023-08-17T00:41:36;20.65;82.80
67131;HTU21D;54051;53.464;49.532;2023-08-17T00:44:02;20.55;83.43
67131;HTU21D;54051;53.464;49.532;2023-08-17T00:46:29;20.44;83.90
67131;HTU21D;54051;53.464;49.532;2023-08-17T00:48:55;20.30;84.40
67131;HTU21D;54051;53.464;49.532;2023-08-17T00:51:22;20.30;84.65
67131;HTU21D;54051;53.464;49.532;2023-08-17T00:53:50;20.32;84.38
67131;HTU21D;54051;53.464;49.532;2023-08-17T00:56:16;20.32;84.60
67131;HTU21D;54051;53.464;49.532;2023-08-17T00:58:42;20.37;84.57
67131;HTU21D;54051;53.464;49.532;2023-08-17T01:01:09;20.46;84.49
67131;HTU21D;54051;53.464;49.532;2023-08-17T01:03:35;20.51;84.52
67131;HTU21D;54051;53.464;49.532;2023-08-17T01:06:01;20.61;83.87
67131;HTU21D;54051;53.464;49.532;2023-08-17T01:08:29;20.62;83.84
67131;HTU21D;54051;53.464;49.532;2023-08-17T01:10:59;20.64;83.39
67131;HTU21D;54051;53.464;49.532;2023-08-17T01:13:47;20.60;83.52
67131;HTU21D;54051;53.464;49.532;2023-08-17T01:16:15;20.63;83.58
67131;HTU21D;54051;53.464;49.532;2023-08-17T01:18:43;20.68;83.21
67131;HTU21D;54051;53.464;49.532;2023-08-17T01:21:10;20.66;82.65
67131;HTU21D;54051;53.464;49.532;2023-08-17T01:23:39;20.68;82.68
67131;HTU21D;54051;53.464;49.532;2023-08-17T01:26:05;20.73;82.24
67131;HTU21D;54051;53.464;49.532;2023-08-17T01:28:31;20.77;82.31
67131;HTU21D;54051;53.464;49.532;2023-08-17T01:33:35;20.83;81.52
67131;HTU21D;54051;53.464;49.532;2023-08-17T01:36:05;20.87;81.81
67131;HTU21D;54051;53.464;49.532;2023-08-17T01:38:33;20.89;81.71
67131;HTU21D;54051;53.464;49.532;2023-08-17T01:40:59;20.95;80.92
67131;HTU21D;54051;53.464;49.532;2023-08-17T01:43:26;20.96;80.93
67131;HTU21D;54051;53.464;49.532;2023-08-17T01:45:52;21.05;80.18
67131;HTU21D;54051;53.464;49.532;2023-08-17T01:48:18;21.03;80.40
67131;HTU21D;54051;53.464;49.532;2023-08-17T01:50:44;21.00;80.27
67131;HTU21D;54051;53.464;49.532;2023-08-17T01:53:09;21.01;80.31
67131;HTU21D;54051;53.464;49.532;2023-08-17T01:55:35;21.02;80.17
67131;HTU21D;54051;53.464;49.532;2023-08-17T01:58:01;21.03;79.30
67131;HTU21D;54051;53.464;49.532;2023-08-17T02:00:27;21.04;79.50
67131;HTU21D;54051;53.464;49.532;2023-08-17T02:02:53;21.05;79.42
67131;HTU21D;54051;53.464;49.532;2023-08-17T02:05:19;21.07;78.96
67131;HTU21D;54051;53.464;49.532;2023-08-17T02:07:45;20.98;79.12
67131;HTU21D;54051;53.464;49.532;2023-08-17T02:10:11;21.02;79.09
67131;HTU21D;54051;53.464;49.532;2023-08-17T02:12:37;21.08;78.65
67131;HTU21D;54051;53.464;49.532;2023-08-17T02:15:03;21.03;78.59
67131;HTU21D;54051;53.464;49.532;2023-08-17T02:17:28;21.08;78.32
67131;HTU21D;54051;53.464;49.532;2023-08-17T02:19:54;21.13;77.52
67131;HTU21D;54051;53.464;49.532;2023-08-17T02:22:20;21.23;77.90
67131;HTU21D;54051;53.464;49.532;2023-08-17T02:24:46;21.45;76.98
67131;HTU21D;54051;53.464;49.532;2023-08-17T02:27:12;21.66;75.56
67131;HTU21D;54051;53.464;49.532;2023-08-17T02:29:39;21.60;75.31
67131;HTU21D;54051;53.464;49.532;2023-08-17T02:32:05;21.51;76.03
67131;HTU21D;54051;53.464;49.532;2023-08-17T02:34:30;21.66;75.60
67131;HTU21D;54051;53.464;49.532;2023-08-17T02:36:56;21.82;74.98
67131;HTU21D;54051;53.464;49.532;2023-08-17T02:39:22;21.88;75.17
67131;HTU21D;54051;53.464;49.532;2023-08-17T02:41:48;21.91;75.25
67131;HTU21D;54051;53.464;49.532;2023-08-17T02:44:15;22.01;74.38
67131;HTU21D;54051;53.464;49.532;2023-08-17T02:46:40;22.11;73.97
67131;HTU21D;54051;53.464;49.532;2023-08-17T02:49:06;22.05;74.28
67131;HTU21D;54051;53.464;49.532;2023-08-17T02:51:32;21.89;75.00
67131;HTU21D;54051;53.464;49.532;2023-08-17T02:53:58;21.79;75.04
67131;HTU21D;54051;53.464;49.532;2023-08-17T02:56:24;21.78;74.50
67131;HTU21D;54051;53.464;49.532;2023-08-17T02:58:50;21.43;76.05
67131;HTU21D;54051;53.464;49.532;2023-08-17T03:01:15;21.50;76.07
67131;HTU21D;54051;53.464;49.532;2023-08-17T03:03:41;21.53;76.73
67131;HTU21D;54051;53.464;49.532;2023-08-17T03:06:07;21.73;75.91
67131;HTU21D;54051;53.464;49.532;2023-08-17T03:08:34;21.87;75.24
67131;HTU21D;54051;53.464;49.532;2023-08-17T03:10:59;22.20;73.78
67131;HTU21D;54051;53.464;49.532;2023-08-17T03:13:25;22.50;72.42
67131;HTU21D;54051;53.464;49.532;2023-08-17T03:15:51;22.77;71.16
67131;HTU21D;54051;53.464;49.532;2023-08-17T03:18:17;23.77;67.75
67131;HTU21D;54051;53.464;49.532;2023-08-17T03:20:44;25.09;63.92
67131;HTU21D;54051;53.464;49.532;2023-08-17T03:23:10;28.84;51.21
67131;HTU21D;54051;53.464;49.532;2023-08-17T03:25:35;31.07;45.03
67131;HTU21D;54051;53.464;49.532;2023-08-17T03:28:01;32.97;39.83
67131;HTU21D;54051;53.464;49.532;2023-08-17T03:30:27;33.09;39.01
67131;HTU21D;54051;53.464;49.532;2023-08-17T03:32:53;33.18;38.87
67131;HTU21D;54051;53.464;49.532;2023-08-17T03:35:19;32.11;41.27
67131;HTU21D;54051;53.464;49.532;2023-08-17T03:37:49;30.86;44.81
67131;HTU21D;54051;53.464;49.532;2023-08-17T03:40:15;30.47;45.90
67131;HTU21D;54051;53.464;49.532;2023-08-17T03:42:41;31.29;44.50
67131;HTU21D;54051;53.464;49.532;2023-08-17T03:45:07;31.58;43.20
67131;HTU21D;54051;53.464;49.532;2023-08-17T03:47:33;32.49;40.67
67131;HTU21D;54051;53.464;49.532;2023-08-17T03:49:58;33.00;39.93
67131;HTU21D;54051;53.464;49.532;2023-08-17T03:52:24;34.57;36.64
67131;HTU21D;54051;53.464;49.532;2023-08-17T03:54:50;33.75;37.69
67131;HTU21D;54051;53.464;49.532;2023-08-17T03:57:16;30.53;45.45
67131;HTU21D;54051;53.464;49.532;2023-08-17T03:59:42;28.56;51.59
67131;HTU21D;54051;53.464;49.532;2023-08-17T04:02:08;30.91;45.28
67131;HTU21D;54051;53.464;49.532;2023-08-17T04:04:33;31.25;43.19
67131;HTU21D;54051;53.464;49.532;2023-08-17T04:07:00;29.33;48.44
67131;HTU21D;54051;53.464;49.532;2023-08-17T04:09:25;30.03;46.70
67131;HTU21D;54051;53.464;49.532;2023-08-17T04:11:51;32.32;41.78
67131;HTU21D;54051;53.464;49.532;2023-08-17T04:14:17;35.30;34.60
67131;HTU21D;54051;53.464;49.532;2023-08-17T04:16:43;36.18;32.75
67131;HTU21D;54051;53.464;49.532;2023-08-17T04:19:09;33.25;38.31
67131;HTU21D;54051;53.464;49.532;2023-08-17T04:21:34;30.70;44.81
67131;HTU21D;54051;53.464;49.532;2023-08-17T04:24:00;30.04;46.86
67131;HTU21D;54051;53.464;49.532;2023-08-17T04:26:26;31.25;43.55
67131;HTU21D;54051;53.464;49.532;2023-08-17T04:28:52;34.25;36.98
67131;HTU21D;54051;53.464;49.532;2023-08-17T04:31:18;36.62;31.53
67131;HTU21D;54051;53.464;49.532;2023-08-17T04:33:43;37.90;29.37
67131;HTU21D;54051;53.464;49.532;2023-08-17T04:36:09;39.05;26.66
67131;HTU21D;54051;53.464;49.532;2023-08-17T04:38:35;39.80;25.46
67131;HTU21D;54051;53.464;49.532;2023-08-17T04:41:01;40.58;24.69
67131;HTU21D;54051;53.464;49.532;2023-08-17T04:43:27;41.04;22.96
67131;HTU21D;54051;53.464;49.532;2023-08-17T04:45:52;40.43;24.46
67131;HTU21D;54051;53.464;49.532;2023-08-17T04:48:18;41.19;22.76
67131;HTU21D;54051;53.464;49.532;2023-08-17T04:50:44;41.46;22.31
67131;HTU21D;54051;53.464;49.532;2023-08-17T04:53:10;41.30;22.56
67131;HTU21D;54051;53.464;49.532;2023-08-17T04:55:36;41.80;22.52
67131;HTU21D;54051;53.464;49.532;2023-08-17T04:58:02;42.59;20.80
67131;HTU21D;54051;53.464;49.532;2023-08-17T05:00:28;42.79;20.52
67131;HTU21D;54051;53.464;49.532;2023-08-17T05:02:54;43.12;20.15
67131;HTU21D;54051;53.464;49.532;2023-08-17T05:05:20;43.61;19.42
67131;HTU21D;54051;53.464;49.532;2023-08-17T05:07:46;43.27;19.26
67131;HTU21D;54051;53.464;49.532;2023-08-17T05:10:13;43.46;19.35
67131;HTU21D;54051;53.464;49.532;2023-08-17T05:12:39;44.56;17.99
67131;HTU21D;54051;53.464;49.532;2023-08-17T05:15:04;44.77;17.65
67131;HTU21D;54051;53.464;49.532;2023-08-17T05:17:30;44.73;17.19
67131;HTU21D;54051;53.464;49.532;2023-08-17T05:19:56;44.54;17.98
67131;HTU21D;54051;53.464;49.532;2023-08-17T05:22:22;45.38;17.31
67131;HTU21D;54051;53.464;49.532;2023-08-17T05:24:48;46.43;16.14
67131;HTU21D;54051;53.464;49.532;2023-08-17T05:27:13;46.48;15.59
67131;HTU21D;54051;53.464;49.532;2023-08-17T05:29:39;46.80;15.40
67131;HTU21D;54051;53.464;49.532;2023-08-17T05:32:05;47.26;14.77
67131;HTU21D;54051;53.464;49.532;2023-08-17T05:34:31;47.38;14.70
67131;HTU21D;54051;53.464;49.532;2023-08-17T05:36:57;46.22;15.90
67131;HTU21D;54051;53.464;49.532;2023-08-17T05:39:23;46.45;16.00
67131;HTU21D;54051;53.464;49.532;2023-08-17T05:41:49;47.62;14.47
67131;HTU21D;54051;53.464;49.532;2023-08-17T05:44:14;48.09;13.71
67131;HTU21D;54051;53.464;49.532;2023-08-17T05:46:40;48.28;13.80
67131;HTU21D;54051;53.464;49.532;2023-08-17T05:49:09;48.21;13.62
67131;HTU21D;54051;53.464;49.532;2023-08-17T05:51:35;48.50;13.36
67131;HTU21D;54051;53.464;49.532;2023-08-17T05:54:01;48.44;13.44
67131;HTU21D;54051;53.464;49.532;2023-08-17T05:56:32;48.53;13.23
67131;HTU21D;54051;53.464;49.532;2023-08-17T05:59:00;48.58;13.05
67131;HTU21D;54051;53.464;49.532;2023-08-17T06:01:30;48.71;12.60
67131;HTU21D;54051;53.464;49.532;2023-08-17T06:03:56;48.15;13.13
67131;HTU21D;54051;53.464;49.532;2023-08-17T06:06:22;47.76;13.91
67131;HTU21D;54051;53.464;49.532;2023-08-17T06:08:48;47.84;13.19
67131;HTU21D;54051;53.464;49.532;2023-08-17T06:11:14;48.21;12.85
67131;HTU21D;54051;53.464;49.532;2023-08-17T06:13:40;45.86;15.20
67131;HTU21D;54051;53.464;49.532;2023-08-17T06:16:06;45.49;15.53
67131;HTU21D;54051;53.464;49.532;2023-08-17T06:18:32;45.18;15.66
67131;HTU21D;54051;53.464;49.532;2023-08-17T06:20:58;46.32;14.78
67131;HTU21D;54051;53.464;49.532;2023-08-17T06:23:23;46.78;13.40
67131;HTU21D;54051;53.464;49.532;2023-08-17T06:25:50;46.39;13.40
67131;HTU21D;54051;53.464;49.532;2023-08-17T06:28:16;45.38;14.39
67131;HTU21D;54051;53.464;49.532;2023-08-17T06:30:41;45.31;14.63
67131;HTU21D;54051;53.464;49.532;2023-08-17T06:33:07;46.13;13.66
67131;HTU21D;54051;53.464;49.532;2023-08-17T06:35:33;46.55;13.26
67131;HTU21D;54051;53.464;49.532;2023-08-17T06:37:59;45.28;14.38
67131;HTU21D;54051;53.464;49.532;2023-08-17T06:40:25;44.59;14.58
67131;HTU21D;54051;53.464;49.532;2023-08-17T06:42:51;44.37;15.26
67131;HTU21D;54051;53.464;49.532;2023-08-17T06:45:19;44.70;14.35
67131;HTU21D;54051;53.464;49.532;2023-08-17T06:47:45;44.66;13.67
67131;HTU21D;54051;53.464;49.532;2023-08-17T06:50:14;43.00;15.92
67131;HTU21D;54051;53.464;49.532;2023-08-17T06:52:40;43.47;15.51
67131;HTU21D;54051;53.464;49.532;2023-08-17T06:55:06;42.00;17.90
67131;HTU21D;54051;53.464;49.532;2023-08-17T06:57:32;43.44;15.84
67131;HTU21D;54051;53.464;49.532;2023-08-17T06:59:58;44.52;14.92
67131;HTU21D;54051;53.464;49.532;2023-08-17T07:02:24;44.21;14.82
67131;HTU21D;54051;53.464;49.532;2023-08-17T07:04:50;43.70;15.28
67131;HTU21D;54051;53.464;49.532;2023-08-17T07:07:16;42.67;15.93
67131;HTU21D;54051;53.464;49.532;2023-08-17T07:09:41;41.81;17.03
67131;HTU21D;54051;53.464;49.532;2023-08-17T07:12:07;41.65;17.49
67131;HTU21D;54051;53.464;49.532;2023-08-17T07:14:33;41.84;17.09
67131;HTU21D;54051;53.464;49.532;2023-08-17T07:16:59;42.62;16.14
67131;HTU21D;54051;53.464;49.532;2023-08-17T07:19:25;42.77;15.51
67131;HTU21D;54051;53.464;49.532;2023-08-17T07:21:50;41.86;16.82
67131;HTU21D;54051;53.464;49.532;2023-08-17T07:24:16;41.58;16.89
67131;HTU21D;54051;53.464;49.532;2023-08-17T07:26:43;41.63;16.66
67131;HTU21D;54051;53.464;49.532;2023-08-17T07:29:08;40.16;19.09
67131;HTU21D;54051;53.464;49.532;2023-08-17T07:31:34;40.45;18.54
67131;HTU21D;54051;53.464;49.532;2023-08-17T07:34:03;42.59;16.13
67131;HTU21D;54051;53.464;49.532;2023-08-17T07:36:29;43.47;14.71
67131;HTU21D;54051;53.464;49.532;2023-08-17T07:38:55;43.58;14.31
67131;HTU21D;54051;53.464;49.532;2023-08-17T07:41:21;44.25;13.57
67131;HTU21D;54051;53.464;49.532;2023-08-17T07:43:46;44.14;13.60
67131;HTU21D;54051;53.464;49.532;2023-08-17T07:46:12;42.81;14.94
67131;HTU21D;54051;53.464;49.532;2023-08-17T07:48:38;38.79;20.22
67131;HTU21D;54051;53.464;49.532;2023-08-17T07:51:04;39.49;20.08
67131;HTU21D;54051;53.464;49.532;2023-08-17T07:53:30;40.00;18.90
67131;HTU21D;54051;53.464;49.532;2023-08-17T07:55:56;38.16;21.79
67131;HTU21D;54051;53.464;49.532;2023-08-17T07:58:22;39.38;20.21
67131;HTU21D;54051;53.464;49.532;2023-08-17T08:00:48;42.24;16.38
67131;HTU21D;54051;53.464;49.532;2023-08-17T08:03:14;43.50;14.54
67131;HTU21D;54051;53.464;49.532;2023-08-17T08:05:39;43.61;14.57
67131;HTU21D;54051;53.464;49.532;2023-08-17T08:08:05;45.15;13.29
67131;HTU21D;54051;53.464;49.532;2023-08-17T08:10:31;45.61;12.21
67131;HTU21D;54051;53.464;49.532;2023-08-17T08:12:57;44.43;13.77
67131;HTU21D;54051;53.464;49.532;2023-08-17T08:15:23;44.74;13.23
67131;HTU21D;54051;53.464;49.532;2023-08-17T08:17:49;44.20;14.09
67131;HTU21D;54051;53.464;49.532;2023-08-17T08:20:15;44.35;13.95
67131;HTU21D;54051;53.464;49.532;2023-08-17T08:22:41;42.22;16.29
67131;HTU21D;54051;53.464;49.532;2023-08-17T08:25:06;40.65;18.70
67131;HTU21D;54051;53.464;49.532;2023-08-17T08:27:33;38.88;20.86
67131;HTU21D;54051;53.464;49.532;2023-08-17T08:29:58;38.53;21.66
67131;HTU21D;54051;53.464;49.532;2023-08-17T08:32:24;38.07;22.46
67131;HTU21D;54051;53.464;49.532;2023-08-17T08:34:50;37.59;22.97
67131;HTU21D;54051;53.464;49.532;2023-08-17T08:37:16;37.14;23.35
67131;HTU21D;54051;53.464;49.532;2023-08-17T08:39:52;36.98;23.89
67131;HTU21D;54051;53.464;49.532;2023-08-17T08:42:19;37.08;23.66
67131;HTU21D;54051;53.464;49.532;2023-08-17T08:44:45;37.29;23.87
67131;HTU21D;54051;53.464;49.532;2023-08-17T08:47:14;37.71;22.97
67131;HTU21D;54051;53.464;49.532;2023-08-17T08:49:45;38.66;21.97
67131;HTU21D;54051;53.464;49.532;2023-08-17T08:52:17;39.71;20.28
67131;HTU21D;54051;53.464;49.532;2023-08-17T08:54:45;40.50;18.89
67131;HTU21D;54051;53.464;49.532;2023-08-17T08:57:13;39.59;21.24
67131;HTU21D;54051;53.464;49.532;2023-08-17T08:59:40;38.77;20.71
67131;HTU21D;54051;53.464;49.532;2023-08-17T09:02:14;37.18;23.79
67131;HTU21D;54051;53.464;49.532;2023-08-17T09:04:41;35.62;27.14
67131;HTU21D;54051;53.464;49.532;2023-08-17T09:07:07;33.83;30.03
67131;HTU21D;54051;53.464;49.532;2023-08-17T09:09:34;33.61;31.38
67131;HTU21D;54051;53.464;49.532;2023-08-17T09:12:00;33.44;30.20
67131;HTU21D;54051;53.464;49.532;2023-08-17T09:14:26;33.09;32.26
67131;HTU21D;54051;53.464;49.532;2023-08-17T09:16:52;32.11;34.32
67131;HTU21D;54051;53.464;49.532;2023-08-17T09:19:20;31.51;35.73
67131;HTU21D;54051;53.464;49.532;2023-08-17T09:21:49;31.16;36.02
67131;HTU21D;54051;53.464;49.532;2023-08-17T09:24:15;31.11;36.75
67131;HTU21D;54051;53.464;49.532;2023-08-17T09:26:41;31.22;36.47
67131;HTU21D;54051;53.464;49.532;2023-08-17T09:29:17;31.12;36.13
67131;HTU21D;54051;53.464;49.532;2023-08-17T09:31:43;31.11;36.84
67131;HTU21D;54051;53.464;49.532;2023-08-17T09:34:10;31.09;36.37
67131;HTU21D;54051;53.464;49.532;2023-08-17T09:36:35;31.20;36.06
67131;HTU21D;54051;53.464;49.532;2023-08-17T09:39:05;31.18;36.62
67131;HTU21D;54051;53.464;49.532;2023-08-17T09:41:37;31.09;37.28
67131;HTU21D;54051;53.464;49.532;2023-08-17T09:44:09;31.22;36.71
67131;HTU21D;54051;53.464;49.532;2023-08-17T09:46:35;31.41;37.39
67131;HTU21D;54051;53.464;49.532;2023-08-17T09:49:06;31.36;36.82
67131;HTU21D;54051;53.464;49.532;2023-08-17T09:51:34;31.56;36.02
67131;HTU21D;54051;53.464;49.532;2023-08-17T09:54:00;31.78;36.70
67131;HTU21D;54051;53.464;49.532;2023-08-17T09:56:26;31.68;36.24
67131;HTU21D;54051;53.464;49.532;2023-08-17T09:58:52;31.26;38.17
67131;HTU21D;54051;53.464;49.532;2023-08-17T10:01:18;31.35;37.40
67131;HTU21D;54051;53.464;49.532;2023-08-17T10:03:47;31.27;37.44
67131;HTU21D;54051;53.464;49.532;2023-08-17T10:06:17;31.24;37.72
67131;HTU21D;54051;53.464;49.532;2023-08-17T10:08:46;31.27;38.24
67131;HTU21D;54051;53.464;49.532;2023-08-17T10:11:16;31.25;38.29
67131;HTU21D;54051;53.464;49.532;2023-08-17T10:16:23;31.43;37.25
67131;HTU21D;54051;53.464;49.532;2023-08-17T10:18:53;31.27;37.87
67131;HTU21D;54051;53.464;49.532;2023-08-17T10:21:31;31.14;38.95
67131;HTU21D;54051;53.464;49.532;2023-08-17T10:24:02;30.93;38.96
67131;HTU21D;54051;53.464;49.532;2023-08-17T10:26:28;30.94;38.93
67131;HTU21D;54051;53.464;49.532;2023-08-17T10:28:55;30.97;39.16
67131;HTU21D;54051;53.464;49.532;2023-08-17T10:31:23;31.01;38.78
67131;HTU21D;54051;53.464;49.532;2023-08-17T10:33:49;30.92;38.72
67131;HTU21D;54051;53.464;49.532;2023-08-17T10:36:15;30.82;39.30
67131;HTU21D;54051;53.464;49.532;2023-08-17T10:38:41;30.99;39.23
67131;HTU21D;54051;53.464;49.532;2023-08-17T10:41:14;31.12;39.11
67131;HTU21D;54051;53.464;49.532;2023-08-17T10:43:56;31.39;37.30
67131;HTU21D;54051;53.464;49.532;2023-08-17T10:46:31;31.49;37.56
67131;HTU21D;54051;53.464;49.532;2023-08-17T10:49:00;31.43;37.49
67131;HTU21D;54051;53.464;49.532;2023-08-17T10:51:26;31.49;37.53
67131;HTU21D;54051;53.464;49.532;2023-08-17T10:53:51;31.54;38.09
67131;HTU21D;54051;53.464;49.532;2023-08-17T10:56:18;31.27;38.06
67131;HTU21D;54051;53.464;49.532;2023-08-17T10:58:44;31.44;37.42
67131;HTU21D;54051;53.464;49.532;2023-08-17T11:01:10;31.41;38.50
67131;HTU21D;54051;53.464;49.532;2023-08-17T11:03:36;31.53;37.74
67131;HTU21D;54051;53.464;49.532;2023-08-17T11:06:15;31.46;38.11
67131;HTU21D;54051;53.464;49.532;2023-08-17T11:08:52;31.35;39.23
67131;HTU21D;54051;53.464;49.532;2023-08-17T11:11:19;31.29;38.62
67131;HTU21D;54051;53.464;49.532;2023-08-17T11:13:46;31.30;39.34
67131;HTU21D;54051;53.464;49.532;2023-08-17T11:16:12;31.50;38.85
67131;HTU21D;54051;53.464;49.532;2023-08-17T11:18:38;31.51;38.02
67131;HTU21D;54051;53.464;49.532;2023-08-17T11:21:05;31.51;38.14
67131;HTU21D;54051;53.464;49.532;2023-08-17T11:23:31;31.42;37.96
67131;HTU21D;54051;53.464;49.532;2023-08-17T11:25:58;31.36;39.23
67131;HTU21D;54051;53.464;49.532;2023-08-17T11:28:24;31.49;38.69
67131;HTU21D;54051;53.464;49.532;2023-08-17T11:31:04;31.46;38.39
67131;HTU21D;54051;53.464;49.532;2023-08-17T11:33:31;31.71;37.61
67131;HTU21D;54051;53.464;49.532;2023-08-17T11:36:00;31.86;37.14
67131;HTU21D;54051;53.464;49.532;2023-08-17T11:38:30;31.67;37.96
67131;HTU21D;54051;53.464;49.532;2023-08-17T11:40:57;31.64;38.17
67131;HTU21D;54051;53.464;49.532;2023-08-17T11:43:23;31.61;37.99
67131;HTU21D;54051;53.464;49.532;2023-08-17T11:45:49;31.57;38.24
67131;HTU21D;54051;53.464;49.532;2023-08-17T11:48:15;31.64;37.83
67131;HTU21D;54051;53.464;49.532;2023-08-17T11:50:42;31.67;37.80
67131;HTU21D;54051;53.464;49.532;2023-08-17T11:53:08;31.66;37.43
67131;HTU21D;54051;53.464;49.532;2023-08-17T11:55:34;31.66;37.19
67131;HTU21D;54051;53.464;49.532;2023-08-17T11:58:01;31.68;37.02
67131;HTU21D;54051;53.464;49.532;2023-08-17T12:00:27;31.68;37.09
67131;HTU21D;54051;53.464;49.532;2023-08-17T12:02:53;31.72;36.98
67131;HTU21D;54051;53.464;49.532;2023-08-17T12:05:22;31.75;36.79
67131;HTU21D;54051;53.464;49.532;2023-08-17T12:08:10;31.85;36.37
67131;HTU21D;54051;53.464;49.532;2023-08-17T12:10:36;31.95;36.26
67131;HTU21D;54051;53.464;49.532;2023-08-17T12:13:02;31.95;36.60
67131;HTU21D;54051;53.464;49.532;2023-08-17T12:15:31;31.99;36.51
67131;HTU21D;54051;53.464;49.532;2023-08-17T12:17:58;32.14;36.31
67131;HTU21D;54051;53.464;49.532;2023-08-17T12:20:25;32.11;36.40
67131;HTU21D;54051;53.464;49.532;2023-08-17T12:22:50;32.12;36.77
67131;HTU21D;54051;53.464;49.532;2023-08-17T12:25:17;31.94;37.38
67131;HTU21D;54051;53.464;49.532;2023-08-17T12:27:46;32.13;36.66
67131;HTU21D;54051;53.464;49.532;2023-08-17T12:30:14;32.15;36.02
67131;HTU21D;54051;53.464;49.532;2023-08-17T12:33:00;32.26;35.86
67131;HTU21D;54051;53.464;49.532;2023-08-17T12:35:26;32.42;35.50
67131;HTU21D;54051;53.464;49.532;2023-08-17T12:37:52;32.37;35.57
67131;HTU21D;54051;53.464;49.532;2023-08-17T12:40:18;32.45;34.85
67131;HTU21D;54051;53.464;49.532;2023-08-17T12:42:44;32.62;34.96
67131;HTU21D;54051;53.464;49.532;2023-08-17T12:45:10;32.56;36.40
67131;HTU21D;54051;53.464;49.532;2023-08-17T12:47:36;32.62;34.63
67131;HTU21D;54051;53.464;49.532;2023-08-17T12:50:02;32.62;35.88
67131;HTU21D;54051;53.464;49.532;2023-08-17T12:52:29;32.62;34.92
67131;HTU21D;54051;53.464;49.532;2023-08-17T12:54:54;32.76;35.43
67131;HTU21D;54051;53.464;49.532;2023-08-17T12:57:20;32.62;35.72
67131;HTU21D;54051;53.464;49.532;2023-08-17T12:59:46;32.39;35.16
67131;HTU21D;54051;53.464;49.532;2023-08-17T13:02:12;32.43;35.76
67131;HTU21D;54051;53.464;49.532;2023-08-17T13:04:38;32.67;34.73
67131;HTU21D;54051;53.464;49.532;2023-08-17T13:07:04;32.83;34.11
67131;HTU21D;54051;53.464;49.532;2023-08-17T13:09:30;32.85;32.99
67131;HTU21D;54051;53.464;49.532;2023-08-17T13:11:56;32.48;30.43
67131;HTU21D;54051;53.464;49.532;2023-08-17T13:14:22;31.83;32.28
67131;HTU21D;54051;53.464;49.532;2023-08-17T13:16:51;30.34;42.57
67131;HTU21D;54051;53.464;49.532;2023-08-17T13:19:17;29.19;46.21
67131;HTU21D;54051;53.464;49.532;2023-08-17T13:21:43;28.89;47.86
67131;HTU21D;54051;53.464;49.532;2023-08-17T13:24:09;28.82;47.86
67131;HTU21D;54051;53.464;49.532;2023-08-17T13:26:35;28.78;50.15
67131;HTU21D;54051;53.464;49.532;2023-08-17T13:29:01;28.80;53.14
67131;HTU21D;54051;53.464;49.532;2023-08-17T13:31:27;28.89;54.19
67131;HTU21D;54051;53.464;49.532;2023-08-17T13:33:52;28.92;52.68
67131;HTU21D;54051;53.464;49.532;2023-08-17T13:36:18;28.97;51.57
67131;HTU21D;54051;53.464;49.532;2023-08-17T13:38:44;28.94;54.40
67131;HTU21D;54051;53.464;49.532;2023-08-17T13:41:11;28.94;55.10
67131;HTU21D;54051;53.464;49.532;2023-08-17T13:43:39;28.89;53.68
67131;HTU21D;54051;53.464;49.532;2023-08-17T13:46:04;28.76;53.43
67131;HTU21D;54051;53.464;49.532;2023-08-17T13:48:31;28.76;56.58
67131;HTU21D;54051;53.464;49.532;2023-08-17T13:50:57;28.75;53.38
67131;HTU21D;54051;53.464;49.532;2023-08-17T13:53:23;28.83;53.68
67131;HTU21D;54051;53.464;49.532;2023-08-17T13:56:09;28.79;51.27
67131;HTU21D;54051;53.464;49.532;2023-08-17T13:58:37;28.77;50.44
67131;HTU21D;54051;53.464;49.532;2023-08-17T14:01:03;28.74;49.73
67131;HTU21D;54051;53.464;49.532;2023-08-17T14:03:29;28.72;49.57
67131;HTU21D;54051;53.464;49.532;2023-08-17T14:05:55;28.74;50.30
67131;HTU21D;54051;53.464;49.532;2023-08-17T14:08:41;28.87;50.62
67131;HTU21D;54051;53.464;49.532;2023-08-17T14:11:07;28.94;51.11
67131;HTU21D;54051;53.464;49.532;2023-08-17T14:13:33;28.98;49.77
67131;HTU21D;54051;53.464;49.532;2023-08-17T14:16:02;29.03;49.70
67131;HTU21D;54051;53.464;49.532;2023-08-17T14:18:28;29.20;50.88
67131;HTU21D;54051;53.464;49.532;2023-08-17T14:20:53;29.07;50.64
67131;HTU21D;54051;53.464;49.532;2023-08-17T14:23:19;28.93;51.61
67131;HTU21D;54051;53.464;49.532;2023-08-17T14:25:45;28.83;54.80
67131;HTU21D;54051;53.464;49.532;2023-08-17T14:28:11;28.78;54.52
67131;HTU21D;54051;53.464;49.532;2023-08-17T14:30:36;28.76;54.81
67131;HTU21D;54051;53.464;49.532;2023-08-17T14:33:02;28.83;51.45
67131;HTU21D;54051;53.464;49.532;2023-08-17T14:35:28;28.80;51.60
67131;HTU21D;54051;53.464;49.532;2023-08-17T14:37:54;28.69;51.61
67131;HTU21D;54051;53.464;49.532;2023-08-17T14:40:23;28.68;50.72
67131;HTU21D;54051;53.464;49.532;2023-08-17T14:42:49;28.68;50.80
67131;HTU21D;54051;53.464;49.532;2023-08-17T14:45:15;28.62;50.40
67131;HTU21D;54051;53.464;49.532;2023-08-17T14:48:01;28.63;51.47
67131;HTU21D;54051;53.464;49.532;2023-08-17T14:50:28;28.60;54.26
67131;HTU21D;54051;53.464;49.532;2023-08-17T14:52:53;28.56;52.91
67131;HTU21D;54051;53.464;49.532;2023-08-17T14:55:19;28.58;53.34
67131;HTU21D;54051;53.464;49.532;2023-08-17T14:57:46;28.52;53.29
67131;HTU21D;54051;53.464;49.532;2023-08-17T15:00:12;28.40;54.39
67131;HTU21D;54051;53.464;49.532;2023-08-17T15:02:38;28.17;53.94
67131;HTU21D;54051;53.464;49.532;2023-08-17T15:05:04;28.05;54.62